Dades meteomassalio
Diari Summary for Octubre 16, 2017 Units:  Metric    English   Both
« Previous Day
Next Day »
Diari Semanal Mensual Anual Personalitzat
  Maxima: Minima: Mijana:
Temperatura: -17.8 °C -14.1 °C -9.6 °C
Rosada: -17.8 °C -15.3 °C -12.8 °C
Humitat: Humidity % 40 % 71 %
Velocitat del vent: 0 km/h 0 km/h 6.3 km/h
Racha vent: 0 km/h - -
Vent:- - SE
Pressio: 0 hPa 34703.1 hPa -
Pluja: 0 mm    
Historical Graphs
 
 
Tabular Data for Octubre 16, 2017
Time Temperature Dew Point Pressure Wind Wind Speed Wind Gust Humidity Rainfall Rate (Hourly) solar Conditions
-17.8 °C -17.8 °C 0 hPa Calm     Humidity % 0 mm SolarRadiationWatts/m^2 W/m2 Conditions
00:02 -11.3 °C -13.1 °C 34808.1 hPa Calm     81 % 0 mm 0.0 W/m2 RA
00:07 -11.3 °C -12.9 °C 34808.1 hPa Calm     82 % 0 mm 0.0 W/m2 CLR
00:12 -11.3 °C -12.8 °C 34808.1 hPa Calm     83 % 0 mm 0.0 W/m2 CLR
00:17 -11.3 °C -12.8 °C 34808.1 hPa Calm     83 % 0 mm 0.0 W/m2 CLR
00:18 -11.3 °C -12.7 °C 34808.1 hPa Calm     84 % 0 mm 0.0 W/m2 CLR
00:23 -11.3 °C -12.8 °C 34808.1 hPa Calm     83 % 0 mm 0.0 W/m2 CLR
00:28 -11.6 °C -13.1 °C 34808.1 hPa Calm     84 % 0 mm 0.0 W/m2 CLR
00:33 -11.6 °C -12.9 °C 34808.1 hPa Calm     85 % 0 mm 0.0 W/m2 CLR
00:38 -11.6 °C -12.9 °C 34808.1 hPa Calm     85 % 0 mm 0.0 W/m2 CLR
00:43 -11.6 °C -12.9 °C 34808.1 hPa Calm     86 % 0 mm 0.0 W/m2 CLR
00:48 -11.6 °C -12.7 °C 34808.1 hPa Calm     87 % 0 mm 0.0 W/m2 CLR
00:53 -11.6 °C -12.7 °C 34808.1 hPa Calm     87 % 0 mm 0.0 W/m2 CLR
00:58 -11.9 °C -13.1 °C 34808.1 hPa Calm     87 % 0 mm 0.0 W/m2 CLR
01:03 -11.9 °C -13.1 °C 34808.1 hPa Calm     87 % 0 mm 0.0 W/m2 CLR
01:04 -11.9 °C -13.2 °C 34808.1 hPa Calm     86 % 0 mm 0.0 W/m2 CLR
01:09 -11.9 °C -13.1 °C 34808.1 hPa Calm     87 % 0 mm 0.0 W/m2 CLR
01:14 -11.9 °C -13.1 °C 34808.1 hPa Calm     87 % 0 mm 0.0 W/m2 CLR
01:19 -12.2 °C -13.4 °C 34797.9 hPa Calm     87 % 0 mm 0.0 W/m2 CLR
01:24 -12.2 °C -13.4 °C 34797.9 hPa Calm     86 % 0 mm 0.0 W/m2 CLR
01:29 -12.2 °C -13.4 °C 34797.9 hPa Calm     87 % 0 mm 0.0 W/m2 CLR
01:34 -12.6 °C -13.6 °C 34797.9 hPa Calm     88 % 0 mm 0.0 W/m2 CLR
01:39 -12.6 °C -13.5 °C 34797.9 hPa Calm     89 % 0 mm 0.0 W/m2 CLR
01:44 -12.2 °C -13.1 °C 34797.9 hPa Calm     90 % 0 mm 0.0 W/m2 CLR
01:49 -11.9 °C -12.9 °C 34797.9 hPa Calm     88 % 0 mm 0.0 W/m2 CLR
01:54 -11.9 °C -13.1 °C 34797.9 hPa Calm     87 % 0 mm 0.0 W/m2 CLR
01:59 -12.2 °C -13.4 °C 34797.9 hPa Calm     87 % 0 mm 0.0 W/m2 CLR
02:04 -12.2 °C -13.4 °C 34797.9 hPa Calm     87 % 0 mm 0.0 W/m2 CLR
02:09 -12.2 °C -13.4 °C 34797.9 hPa Calm     87 % 0 mm 0.0 W/m2 CLR
02:14 -12.2 °C -13.4 °C 34797.9 hPa Calm     87 % 0 mm 0.0 W/m2 CLR
02:19 -12.6 °C -13.7 °C 34797.9 hPa Calm     87 % 0 mm 0.0 W/m2 CLR
02:24 -12.6 °C -13.8 °C 34784.4 hPa Calm     86 % 0 mm 0.0 W/m2 CLR
02:30 -12.6 °C -13.7 °C 34797.9 hPa Calm     87 % 0 mm 0.0 W/m2 CLR
02:35 -12.6 °C -13.6 °C 34784.4 hPa Calm     88 % 0 mm 0.0 W/m2 CLR
02:40 -12.2 °C -13.3 °C 34797.9 hPa Calm     88 % 0 mm 0.0 W/m2 CLR
02:45 -12.6 °C -13.6 °C 34797.9 hPa Calm     88 % 0 mm 0.0 W/m2 CLR
02:50 -12.6 °C -13.7 °C 34797.9 hPa Calm     87 % 0 mm 0.0 W/m2 CLR
02:55 -12.2 °C -13.4 °C 34797.9 hPa Calm     87 % 0 mm 0.0 W/m2 CLR
03:00 -12.2 °C -13.4 °C 34797.9 hPa Calm     87 % 0 mm 0.0 W/m2 CLR
03:05 -11.9 °C -12.9 °C 34784.4 hPa Calm     88 % 0 mm 0.0 W/m2 CLR
03:10 -12.2 °C -13.3 °C 34784.4 hPa Calm     88 % 0 mm 0.0 W/m2 CLR
03:15 -12.2 °C -13.3 °C 34784.4 hPa Calm     88 % 0 mm 0.0 W/m2 CLR
03:20 -12.2 °C -13.3 °C 34784.4 hPa Calm     88 % 0 mm 0.0 W/m2 CLR
03:25 -12.2 °C -13.2 °C 34784.4 hPa Calm     89 % 0 mm 0.0 W/m2 CLR
03:30 -12.2 °C -13.3 °C 34784.4 hPa Calm     88 % 0 mm 0.0 W/m2 CLR
03:35 -12.6 °C -13.5 °C 34784.4 hPa Calm     89 % 0 mm 0.0 W/m2 CLR
03:40 -12.6 °C -13.5 °C 34784.4 hPa Calm     89 % 0 mm 0.0 W/m2 CLR
03:45 -12.8 °C -13.8 °C 34784.4 hPa Calm     89 % 0 mm 0.0 W/m2 CLR
03:50 -12.8 °C -13.8 °C 34784.4 hPa Calm     89 % 0 mm 0.0 W/m2 CLR
03:55 -12.8 °C -13.8 °C 34784.4 hPa Calm     89 % 0 mm 0.0 W/m2 CLR
04:00 -12.8 °C -13.9 °C 34784.4 hPa Calm     88 % 0 mm 0.0 W/m2 CLR
04:05 -12.8 °C -13.9 °C 34784.4 hPa Calm     88 % 0 mm 0.0 W/m2 CLR
04:10 -12.8 °C -13.9 °C 34784.4 hPa Calm     88 % 0 mm 0.0 W/m2 CLR
04:15 -12.8 °C -13.8 °C 34784.4 hPa Calm     89 % 0 mm 0.0 W/m2 CLR
04:20 -12.8 °C -13.8 °C 34784.4 hPa Calm     89 % 0 mm 0.0 W/m2 CLR
04:25 -12.8 °C -13.8 °C 34784.4 hPa Calm     89 % 0 mm 0.0 W/m2 CLR
04:30 -12.8 °C -13.8 °C 34784.4 hPa Calm     89 % 0 mm 0.0 W/m2 CLR
04:35 -12.8 °C -13.8 °C 34774.2 hPa Calm     89 % 0 mm 0.0 W/m2 CLR
04:40 -12.8 °C -13.7 °C 34774.2 hPa Calm     90 % 0 mm 0.0 W/m2 CLR
04:45 -12.8 °C -13.8 °C 34774.2 hPa Calm     89 % 0 mm 0.0 W/m2 CLR
04:50 -12.8 °C -13.7 °C 34774.2 hPa Calm     90 % 0 mm 0.0 W/m2 CLR
04:55 -13.2 °C -14 °C 34784.4 hPa Calm     90 % 0 mm 0.0 W/m2 CLR
05:00 -13.2 °C -14.1 °C 34774.2 hPa Calm     89 % 0 mm 0.0 W/m2 CLR
05:05 -13.2 °C -14 °C 34774.2 hPa Calm     90 % 0 mm 0.0 W/m2 CLR
05:10 -13.2 °C -14 °C 34774.2 hPa Calm     90 % 0 mm 0.0 W/m2 CLR
05:15 -13.4 °C -14.3 °C 34784.4 hPa Calm     90 % 0 mm 0.0 W/m2 CLR
05:20 -13.4 °C -14.3 °C 34774.2 hPa Calm     90 % 0 mm 0.0 W/m2 CLR
05:25 -13.2 °C -14 °C 34774.2 hPa Calm     90 % 0 mm 0.0 W/m2 CLR
05:30 -13.2 °C -14 °C 34774.2 hPa Calm     90 % 0 mm 0.0 W/m2 CLR
05:35 -13.2 °C -14 °C 34774.2 hPa Calm     90 % 0 mm 0.0 W/m2 CLR
05:40 -13.2 °C -14 °C 34774.2 hPa Calm     90 % 0 mm 0.0 W/m2 CLR
05:45 -13.2 °C -14 °C 34774.2 hPa Calm     90 % 0 mm 0.0 W/m2 CLR
05:50 -13.4 °C -14.3 °C 34774.2 hPa Calm     90 % 0 mm 0.0 W/m2 CLR
05:55 -13.4 °C -14.3 °C 34774.2 hPa Calm     90 % 0 mm 0.0 W/m2 CLR
06:00 -13.2 °C -14 °C 34774.2 hPa Calm     90 % 0 mm 0.0 W/m2 CLR
06:05 -13.4 °C -14.3 °C 34774.2 hPa Calm     90 % 0 mm 0.0 W/m2 CLR
06:10 -13.4 °C -14.3 °C 34774.2 hPa Calm     90 % 0 mm 0.0 W/m2 CLR
06:15 -13.4 °C -14.3 °C 34774.2 hPa Calm     90 % 0 mm 0.0 W/m2 CLR
06:21 -13.4 °C -14.2 °C 34784.4 hPa Calm     91 % 0 mm 0.0 W/m2 CLR
06:22 -13.4 °C -14.2 °C 34774.2 hPa Calm     91 % 0 mm 0.0 W/m2 CLR
06:27 -13.4 °C -14.3 °C 34784.4 hPa Calm     90 % 0 mm 0.0 W/m2 CLR
06:32 -13.4 °C -14.3 °C 34774.2 hPa Calm     90 % 0 mm 0.0 W/m2 CLR
06:37 -13.2 °C -13.9 °C 34774.2 hPa Calm     91 % 0 mm 0.0 W/m2 CLR
06:42 -13.2 °C -13.9 °C 34784.4 hPa Calm     91 % 0 mm 0.0 W/m2 CLR
06:47 -13.4 °C -14.3 °C 34784.4 hPa Calm     90 % 0 mm 0.0 W/m2 CLR
06:52 -13.4 °C -14.2 °C 34784.4 hPa Calm     91 % 0 mm 0.0 W/m2 CLR
06:57 -13.4 °C -14.2 °C 34784.4 hPa Calm     91 % 0 mm 0.0 W/m2 CLR
07:02 -13.4 °C -14.2 °C 34784.4 hPa Calm     91 % 0 mm 0.0 W/m2 CLR
07:07 -13.8 °C -14.6 °C 34784.4 hPa Calm     91 % 0 mm 0.0 W/m2 CLR
07:12 -13.8 °C -14.6 °C 34784.4 hPa Calm     91 % 0 mm 0.0 W/m2 CLR
07:17 -13.8 °C -14.6 °C 34784.4 hPa Calm     91 % 0 mm 0.0 W/m2 CLR
07:22 -13.8 °C -14.6 °C 34784.4 hPa Calm     91 % 0 mm 0.0 W/m2 CLR
07:27 -13.8 °C -14.6 °C 34797.9 hPa Calm     91 % 0 mm 0.0 W/m2 CLR
07:32 -13.8 °C -14.6 °C 34797.9 hPa Calm     91 % 0 mm 0.0 W/m2 CLR
07:37 -13.8 °C -14.6 °C 34797.9 hPa Calm     91 % 0 mm 0.0 W/m2 CLR
07:42 -13.8 °C -14.6 °C 34797.9 hPa Calm     91 % 0 mm 0.0 W/m2 CLR
07:47 -13.8 °C -14.6 °C 34797.9 hPa Calm     91 % 0 mm 0.0 W/m2 CLR
07:52 -13.8 °C -14.6 °C 34797.9 hPa Calm     91 % 0 mm 0.0 W/m2 CLR
07:57 -14.1 °C -14.8 °C 34797.9 hPa Calm     91 % 0 mm 0.0 W/m2 CLR
08:02 -14.1 °C -14.8 °C 34797.9 hPa Calm     91 % 0 mm 0.0 W/m2 OVC
08:07 -14.1 °C -14.8 °C 34797.9 hPa Calm     91 % 0 mm 0.0 W/m2 OVC
08:12 -14.1 °C -14.8 °C 34808.1 hPa Calm     91 % 0 mm 5.0 W/m2 OVC
08:17 -14.1 °C -14.8 °C 34808.1 hPa Calm     91 % 0 mm 7.0 W/m2 BKN
08:22 -14.1 °C -14.8 °C 34808.1 hPa Calm     91 % 0 mm 11.0 W/m2 BKN
08:27 -14.1 °C -14.8 °C 34808.1 hPa Calm     91 % 0 mm 14.0 W/m2 BKN
08:32 -14.1 °C -14.8 °C 34808.1 hPa Calm     91 % 0 mm 16.0 W/m2 BKN
08:37 -14.1 °C -14.8 °C 34808.1 hPa Calm     91 % 0 mm 19.0 W/m2 BKN
08:42 -13.8 °C -14.6 °C 34818.2 hPa ENE 3.1 km/h   91 % 0 mm 26.0 W/m2 BKN
08:47 -13.8 °C -14.6 °C 34818.2 hPa Calm     91 % 0 mm 33.0 W/m2 BKN
08:52 -13.8 °C -14.6 °C 34818.2 hPa Calm     91 % 0 mm 46.0 W/m2 SCT
08:57 -13.8 °C -14.6 °C 34818.2 hPa Calm     91 % 0 mm 53.0 W/m2 SCT
09:02 -13.4 °C -14.2 °C 34818.2 hPa Calm     91 % 0 mm 62.0 W/m2 SCT
09:07 -13.4 °C -14.2 °C 34818.2 hPa Calm     91 % 0 mm 79.0 W/m2 FEW
09:12 -13.4 °C -14.2 °C 34831.8 hPa Calm     91 % 0 mm 97.0 W/m2 CLR
09:17 -13.4 °C -14.2 °C 34831.8 hPa Calm     91 % 0 mm 113.0 W/m2 CLR
09:22 -13.2 °C -14 °C 34831.8 hPa Calm     90 % 0 mm 104.0 W/m2 CLR
09:23 -13.2 °C -14 °C 34831.8 hPa Calm     90 % 0 mm 116.0 W/m2 CLR
09:28 -12.8 °C -13.7 °C 34841.9 hPa Calm     90 % 0 mm 144.0 W/m2 CLR
09:33 -12.8 °C -13.7 °C 34841.9 hPa Calm     90 % 0 mm 111.0 W/m2 CLR
09:38 -12.6 °C -13.5 °C 34841.9 hPa Calm     89 % 0 mm 179.0 W/m2 CLR
09:43 -12.6 °C -13.6 °C 34841.9 hPa Calm     88 % 0 mm 195.0 W/m2 CLR
09:48 -12.6 °C -13.8 °C 34841.9 hPa Calm     86 % 0 mm 211.0 W/m2 CLR
09:53 -12.6 °C -13.8 °C 34841.9 hPa Calm     85 % 0 mm 230.0 W/m2 CLR
09:58 -12.2 °C -13.7 °C 34841.9 hPa Calm     84 % 0 mm 248.0 W/m2 CLR
10:03 -11.6 °C -13.2 °C 34841.9 hPa Calm     83 % 0 mm 262.0 W/m2 CLR
10:08 -11.6 °C -13.2 °C 34841.9 hPa Calm     82 % 0 mm 274.0 W/m2 CLR
10:13 -11.3 °C -13.1 °C 34841.9 hPa Calm     81 % 0 mm 290.0 W/m2 CLR
10:18 -11.3 °C -13.1 °C 34841.9 hPa Calm     81 % 0 mm 306.0 W/m2 CLR
10:23 -11.3 °C -13.2 °C 34841.9 hPa Calm     79 % 0 mm 320.0 W/m2 CLR
10:28 -10.7 °C -12.7 °C 34852.1 hPa Calm     78 % 0 mm 334.0 W/m2 CLR
10:33 -10.4 °C -12.4 °C 34852.1 hPa Calm     78 % 0 mm 346.0 W/m2 CLR
10:38 -10.1 °C -12.3 °C 34852.1 hPa Calm     77 % 0 mm 360.0 W/m2 CLR
10:43 -10.1 °C -12.3 °C 34852.1 hPa Calm     77 % 0 mm 371.0 W/m2 CLR
10:48 -10.1 °C -12.4 °C 34852.1 hPa Calm     76 % 0 mm 383.0 W/m2 CLR
10:53 -10.1 °C -12.7 °C 34852.1 hPa Calm     73 % 0 mm 399.0 W/m2 CLR
10:58 -10.1 °C -12.8 °C 34852.1 hPa Calm     72 % 0 mm 413.0 W/m2 CLR
11:03 -9.8 °C -12.6 °C 34852.1 hPa Calm     72 % 0 mm 427.0 W/m2 CLR
11:08 -9.4 °C -12.2 °C 34841.9 hPa Calm     72 % 0 mm 436.0 W/m2 CLR
11:13 -9.1 °C -11.9 °C 34841.9 hPa NNW 9 km/h 9 km/h 72 % 0 mm 446.0 W/m2 CLR
11:18 -8.5 °C -11.7 °C 34841.9 hPa NNW 9 km/h 9 km/h 69 % 0 mm 459.0 W/m2 CLR
11:19 -8.5 °C -11.7 °C 34841.9 hPa NNW 9 km/h 9 km/h 69 % 0 mm 459.0 W/m2 CLR
11:24 -8.2 °C -11.5 °C 34841.9 hPa Calm     68 % 0 mm 469.0 W/m2 CLR
11:29 -7.9 °C -11.3 °C 34841.9 hPa NNW 2.6 km/h   67 % 0 mm 483.0 W/m2 CLR
11:34 -7.6 °C -11.1 °C 34841.9 hPa Calm     67 % 0 mm 492.0 W/m2 CLR
11:39 -7.3 °C -11 °C 34841.9 hPa Calm     65 % 0 mm 503.0 W/m2 CLR
11:44 -7.3 °C -11.2 °C 34841.9 hPa Calm     64 % 0 mm 512.0 W/m2 CLR
11:49 -7.3 °C -11.4 °C 34841.9 hPa Calm     62 % 0 mm 524.0 W/m2 CLR
11:54 -7 °C -11.3 °C 34841.9 hPa Calm     61 % 0 mm 531.0 W/m2 CLR
11:59 -6.7 °C -10.8 °C 34841.9 hPa Calm     62 % 0 mm 540.0 W/m2 CLR
12:04 -6.7 °C -11.1 °C 34831.8 hPa Calm     60 % 0 mm 548.0 W/m2 CLR
12:09 -6.3 °C -10.8 °C 34831.8 hPa Calm     60 % 0 mm 555.0 W/m2 CLR
12:14 -6.3 °C -10.8 °C 34831.8 hPa NNW 2.6 km/h   60 % 0 mm 563.0 W/m2 CLR
12:19 -6.1 °C -10.5 °C 34831.8 hPa Calm   0.8 km/h 60 % 0 mm 571.0 W/m2 CLR
12:24 -6.1 °C -10.5 °C 34831.8 hPa NNW 11.9 km/h 11.9 km/h 60 % 0 mm 577.0 W/m2 CLR
12:29 -6.1 °C -10.5 °C 34831.8 hPa NNW 9 km/h 9 km/h 60 % 0 mm 584.0 W/m2 CLR
12:34 -6.1 °C -10.5 °C 34831.8 hPa NNW 9 km/h 9 km/h 60 % 0 mm 591.0 W/m2 CLR
12:39 -5.7 °C -10.4 °C 34818.2 hPa NNW 9 km/h 9 km/h 59 % 0 mm 596.0 W/m2 CLR
12:44 -5.7 °C -10.4 °C 34818.2 hPa NNW 12.9 km/h 12.9 km/h 59 % 0 mm 601.0 W/m2 CLR
12:49 -5.7 °C -10.4 °C 34818.2 hPa WNW 17.9 km/h 17.9 km/h 59 % 0 mm 605.0 W/m2 CLR
12:54 -5.4 °C -10.1 °C 34818.2 hPa NW 3.1 km/h 3.1 km/h 59 % 0 mm 610.0 W/m2 CLR
12:59 -5.1 °C -9.8 °C 34808.1 hPa NNW 15 km/h 15 km/h 59 % 0 mm 613.0 W/m2 CLR
13:04 -4.8 °C -9.8 °C 34808.1 hPa Calm     57 % 0 mm 615.0 W/m2 CLR
13:09 -4.8 °C -9.8 °C 34808.1 hPa North 11.9 km/h 11.9 km/h 57 % 0 mm 619.0 W/m2 CLR
13:14 -4.8 °C -9.9 °C 34808.1 hPa Calm     56 % 0 mm 622.0 W/m2 CLR
13:19 -4.8 °C -9.9 °C 34808.1 hPa NW 23.3 km/h 23.3 km/h 56 % 0 mm 628.0 W/m2 CLR
13:24 -4.8 °C -9.9 °C 34797.9 hPa WNW 11.9 km/h 11.9 km/h 56 % 0 mm 628.0 W/m2 CLR
13:29 -4.8 °C -9.8 °C 34797.9 hPa Calm     57 % 0 mm 633.0 W/m2 CLR
13:34 -4.8 °C -9.9 °C 34797.9 hPa North 12.9 km/h 12.9 km/h 56 % 0 mm 635.0 W/m2 CLR
13:39 -4.8 °C -9.9 °C 34797.9 hPa NNW 15 km/h 15 km/h 56 % 0 mm 633.0 W/m2 CLR
13:44 -4.5 °C -9.8 °C 34784.4 hPa North 15.6 km/h 15.6 km/h 55 % 0 mm 629.0 W/m2 CLR
13:49 -4.5 °C -9.7 °C 34784.4 hPa Calm     56 % 0 mm 631.0 W/m2 CLR
13:54 -4.2 °C -9.4 °C 34784.4 hPa West 20.9 km/h 20.9 km/h 56 % 0 mm 629.0 W/m2 CLR
13:59 -4.5 °C -9.7 °C 34784.4 hPa WNW 20.9 km/h 20.9 km/h 56 % 0 mm 629.0 W/m2 CLR
14:04 -4.2 °C -9.6 °C 34784.4 hPa NNW 5.1 km/h 5.1 km/h 55 % 0 mm 631.0 W/m2 CLR
14:09 -4.5 °C -9.8 °C 34774.2 hPa Calm     55 % 0 mm 629.0 W/m2 CLR
14:10 -4.5 °C -9.8 °C 34774.2 hPa Calm     55 % 0 mm 629.0 W/m2 CLR
14:15 -4.2 °C -9.7 °C 34774.2 hPa NNW 20.9 km/h 20.9 km/h 54 % 0 mm 626.0 W/m2 CLR
14:20 -3.9 °C -9.6 °C 34774.2 hPa NW 20.9 km/h 20.9 km/h 53 % 0 mm 626.0 W/m2 CLR
14:25 -3.9 °C -9.8 °C 34760.7 hPa NNW 9 km/h 9 km/h 52 % 0 mm 619.0 W/m2 CLR
14:30 -3.9 °C -9.8 °C 34760.7 hPa NW 15.6 km/h 15.6 km/h 52 % 0 mm 617.0 W/m2 CLR
14:35 -3.9 °C -9.9 °C 34760.7 hPa NW 29.8 km/h 29.8 km/h 51 % 0 mm 612.0 W/m2 CLR
14:40 -3.9 °C -9.9 °C 34750.5 hPa WNW 17.9 km/h 17.9 km/h 51 % 0 mm 610.0 W/m2 CLR
14:45 -3.6 °C -9.9 °C 34750.5 hPa WNW 23.8 km/h 23.8 km/h 49 % 0 mm 606.0 W/m2 CLR
14:50 -3.6 °C -9.9 °C 34750.5 hPa NE 28.5 km/h 28.5 km/h 49 % 0 mm 601.0 W/m2 CLR
14:55 -3.6 °C -9.9 °C 34750.5 hPa North 11.9 km/h 11.9 km/h 49 % 0 mm 598.0 W/m2 CLR
15:00 -3.6 °C -10.2 °C 34740.4 hPa North 11.9 km/h 11.9 km/h 48 % 0 mm 596.0 W/m2 CLR
15:05 -3.6 °C -10.2 °C 34740.4 hPa NNE 12.9 km/h 12.9 km/h 48 % 0 mm 591.0 W/m2 CLR
15:10 -3.3 °C -9.9 °C 34740.4 hPa North 9 km/h 9 km/h 48 % 0 mm 577.0 W/m2 CLR
15:15 -3.3 °C -10.1 °C 34740.4 hPa North 20.9 km/h 20.9 km/h 47 % 0 mm 573.0 W/m2 CLR
15:20 -3.6 °C -10.3 °C 34740.4 hPa North 29.8 km/h 29.8 km/h 47 % 0 mm 568.0 W/m2 CLR
15:25 -3.6 °C -10.2 °C 34740.4 hPa NE 23.8 km/h 23.8 km/h 48 % 0 mm 559.0 W/m2 CLR
15:30 -3.3 °C -9.9 °C 34740.4 hPa North 26.9 km/h 26.9 km/h 48 % 0 mm 548.0 W/m2 CLR
15:35 -3.3 °C -10.1 °C 34726.8 hPa North 26.9 km/h 26.9 km/h 47 % 0 mm 536.0 W/m2 CLR
15:40 -3.3 °C -9.9 °C 34726.8 hPa NW 23.8 km/h 23.8 km/h 48 % 0 mm 526.0 W/m2 CLR
15:45 -3.6 °C -10.3 °C 34726.8 hPa NNE 18.2 km/h 18.2 km/h 47 % 0 mm 517.0 W/m2 CLR
15:50 -3.3 °C -10.1 °C 34726.8 hPa NNE 23.8 km/h 23.8 km/h 47 % 0 mm 510.0 W/m2 CLR
15:55 -3.3 °C -10.1 °C 34726.8 hPa NNW 29.8 km/h 29.8 km/h 47 % 0 mm 499.0 W/m2 CLR
16:00 -3.3 °C -10.1 °C 34726.8 hPa NNW 26.9 km/h 26.9 km/h 47 % 0 mm 490.0 W/m2 CLR
16:05 -3.3 °C -9.9 °C 34726.8 hPa NNW 9 km/h 9 km/h 48 % 0 mm 480.0 W/m2 CLR
16:10 -3.3 °C -10.1 °C 34716.7 hPa NNE 17.9 km/h 17.9 km/h 47 % 0 mm 466.0 W/m2 CLR
16:15 -3.3 °C -10.1 °C 34716.7 hPa NE 15.6 km/h 15.6 km/h 47 % 0 mm 454.0 W/m2 CLR
16:20 -3.3 °C -10.4 °C 34716.7 hPa NNE 9 km/h 9 km/h 45 % 0 mm 446.0 W/m2 CLR
16:25 -2.9 °C -10.3 °C 34716.7 hPa ENE 15 km/h 15 km/h 44 % 0 mm 432.0 W/m2 CLR
16:30 -2.9 °C -10.2 °C 34716.7 hPa NE 23.3 km/h 23.3 km/h 45 % 0 mm 424.0 W/m2 CLR
16:35 -2.9 °C -10.9 °C 34716.7 hPa ENE 23.8 km/h 23.8 km/h 41 % 0 mm 415.0 W/m2 CLR
16:40 -2.9 °C -11.2 °C 34716.7 hPa ENE 26.9 km/h 26.9 km/h 40 % 0 mm 396.0 W/m2 CLR
16:45 -3.3 °C -11.2 °C 34716.7 hPa NE 20.9 km/h 20.9 km/h 41 % 0 mm 385.0 W/m2 CLR
16:50 -3.3 °C -11.2 °C 34716.7 hPa NE 12.9 km/h 12.9 km/h 41 % 0 mm 371.0 W/m2 CLR
16:55 -3.3 °C -11.2 °C 34716.7 hPa NNE 9 km/h 9 km/h 41 % 0 mm 357.0 W/m2 CLR
17:00 -3.3 °C -11.2 °C 34716.7 hPa NE 17.9 km/h 17.9 km/h 41 % 0 mm 345.0 W/m2 CLR
17:05 -3.3 °C -11.4 °C 34716.7 hPa NE 15 km/h 15 km/h 40 % 0 mm 330.0 W/m2 CLR
17:10 -3.3 °C -11 °C 34716.7 hPa NE 17.9 km/h 17.9 km/h 42 % 0 mm 318.0 W/m2 CLR
17:15 -3.3 °C -11 °C 34716.7 hPa NE 26.9 km/h 26.9 km/h 42 % 0 mm 304.0 W/m2 CLR
17:20 -3.6 °C -11.1 °C 34716.7 hPa NE 15 km/h 15 km/h 43 % 0 mm 290.0 W/m2 CLR
17:25 -3.6 °C -10.9 °C 34716.7 hPa NE 29.8 km/h 29.8 km/h 44 % 0 mm 274.0 W/m2 CLR
17:26 -3.6 °C -10.9 °C 34716.7 hPa NE 29.8 km/h 29.8 km/h 44 % 0 mm 274.0 W/m2 CLR
17:31 -3.6 °C -10.9 °C 34716.7 hPa NE 29.8 km/h 29.8 km/h 44 % 0 mm 260.0 W/m2 CLR
17:36 -3.6 °C -10.9 °C 34716.7 hPa ENE 15 km/h 15 km/h 44 % 0 mm 246.0 W/m2 CLR
17:41 -3.9 °C -11.2 °C 34703.1 hPa NE 29.8 km/h 29.8 km/h 44 % 0 mm 230.0 W/m2 CLR
17:46 -3.9 °C -11 °C 34703.1 hPa ENE 23.8 km/h 23.8 km/h 45 % 0 mm 211.0 W/m2 CLR
17:51 -4.2 °C -11.3 °C 34703.1 hPa ENE 26.9 km/h 26.9 km/h 45 % 0 mm 195.0 W/m2 CLR
17:56 -4.2 °C -11.1 °C 34716.7 hPa ENE 23.8 km/h 23.8 km/h 46 % 0 mm 179.0 W/m2 CLR
18:01 -4.2 °C -11.1 °C 34703.1 hPa ENE 29.8 km/h 29.8 km/h 46 % 0 mm 162.0 W/m2 CLR
18:06 -4.5 °C -11.2 °C 34703.1 hPa ENE 29.8 km/h 29.8 km/h 47 % 0 mm 146.0 W/m2 CLR
18:11 -4.5 °C -11.2 °C 34716.7 hPa NE 29.8 km/h 29.8 km/h 47 % 0 mm 127.0 W/m2 CLR
18:16 -4.8 °C -11.3 °C 34716.7 hPa NE 29.8 km/h 29.8 km/h 48 % 0 mm 111.0 W/m2 CLR
18:21 -4.8 °C -11.3 °C 34716.7 hPa ENE 26.9 km/h 26.9 km/h 48 % 0 mm 95.0 W/m2 CLR
18:26 -4.8 °C -11.1 °C 34716.7 hPa NE 32.8 km/h 32.8 km/h 49 % 0 mm 83.0 W/m2 FEW
18:31 -5.1 °C -11.2 °C 34716.7 hPa ENE 23.8 km/h 23.8 km/h 50 % 0 mm 62.0 W/m2 FEW
18:32 -5.1 °C -11.2 °C 34716.7 hPa NE 23.8 km/h 23.8 km/h 50 % 0 mm 58.0 W/m2 SCT
18:37 -5.1 °C -11.4 °C 34716.7 hPa NE 29.8 km/h 29.8 km/h 49 % 0 mm 49.0 W/m2 SCT
18:42 -5.4 °C -11.7 °C 34716.7 hPa NE 20.9 km/h 20.9 km/h 49 % 0 mm 40.0 W/m2 BKN
18:47 -5.4 °C -11.5 °C 34716.7 hPa ENE 15 km/h 15 km/h 50 % 0 mm 30.0 W/m2 BKN
18:52 -5.7 °C -11.6 °C 34716.7 hPa ENE 26.9 km/h 26.9 km/h 51 % 0 mm 21.0 W/m2 BKN
18:57 -6.1 °C -11.9 °C 34716.7 hPa ENE 29.8 km/h 29.8 km/h 51 % 0 mm 14.0 W/m2 BKN
19:02 -6.3 °C -12.1 °C 34716.7 hPa East 20.9 km/h 20.9 km/h 52 % 0 mm 12.0 W/m2 BKN
19:07 -6.3 °C -12.1 °C 34726.8 hPa ENE 20.9 km/h 20.9 km/h 52 % 0 mm 11.0 W/m2 BKN
19:12 -6.7 °C -12.2 °C 34726.8 hPa ENE 26.9 km/h 26.9 km/h 53 % 0 mm 7.0 W/m2 BKN
19:17 -6.7 °C -12 °C 34726.8 hPa ENE 18.2 km/h 18.2 km/h 54 % 0 mm 5.0 W/m2 OVC
19:22 -6.7 °C -11.8 °C 34726.8 hPa NE 20.9 km/h 20.9 km/h 55 % 0 mm 0.0 W/m2 OVC
19:27 -7 °C -12.1 °C 34726.8 hPa Calm     55 % 0 mm 0.0 W/m2 OVC
19:32 -7.3 °C -12.3 °C 34726.8 hPa NNE 11.9 km/h 11.9 km/h 56 % 0 mm 0.0 W/m2 CLR
19:37 -7.6 °C -12.4 °C 34726.8 hPa ENE 9 km/h 9 km/h 57 % 0 mm 0.0 W/m2 CLR
19:42 -7.9 °C -12.6 °C 34726.8 hPa Calm     58 % 0 mm 0.0 W/m2 CLR
19:47 -8.2 °C -12.6 °C 34726.8 hPa ENE 9 km/h 9 km/h 60 % 0 mm 0.0 W/m2 CLR
19:52 -8.5 °C -12.8 °C 34726.8 hPa NE 9 km/h 9 km/h 60 % 0 mm 0.0 W/m2 CLR
19:57 -8.8 °C -13.2 °C 34740.4 hPa Calm     60 % 0 mm 0.0 W/m2 CLR
20:02 -9.1 °C -13.3 °C 34740.4 hPa Calm     61 % 0 mm 0.0 W/m2 CLR
20:07 -9.4 °C -13.4 °C 34740.4 hPa NE 6 km/h 6 km/h 62 % 0 mm 0.0 W/m2 CLR
20:12 -9.4 °C -13.4 °C 34740.4 hPa NE 9 km/h 9 km/h 62 % 0 mm 0.0 W/m2 CLR
20:17 -9.8 °C -13.6 °C 34740.4 hPa NE 9 km/h 9 km/h 63 % 0 mm 0.0 W/m2 CLR
20:22 -10.1 °C -13.9 °C 34740.4 hPa Calm     63 % 0 mm 0.0 W/m2 CLR
20:27 -10.1 °C -13.8 °C 34740.4 hPa ENE 15 km/h 15 km/h 64 % 0 mm 0.0 W/m2 CLR
20:32 -10.1 °C -13.8 °C 34740.4 hPa Calm     64 % 0 mm 0.0 W/m2 CLR
20:37 -10.4 °C -14.1 °C 34740.4 hPa Calm     64 % 0 mm 0.0 W/m2 CLR
20:42 -10.4 °C -14.1 °C 34740.4 hPa Calm     64 % 0 mm 0.0 W/m2 CLR
20:47 -10.4 °C -13.9 °C 34740.4 hPa NE 11.9 km/h 11.9 km/h 65 % 0 mm 0.0 W/m2 CLR
20:52 -10.4 °C -13.9 °C 34740.4 hPa NE 9 km/h 9 km/h 65 % 0 mm 0.0 W/m2 CLR
20:57 -10.4 °C -13.9 °C 34740.4 hPa NE 6 km/h 6 km/h 65 % 0 mm 0.0 W/m2 CLR
21:02 -10.7 °C -14.1 °C 34740.4 hPa NE 11.9 km/h 11.9 km/h 66 % 0 mm 0.0 W/m2 CLR
21:07 -10.7 °C -14.1 °C 34750.5 hPa NE 10.3 km/h 10.3 km/h 66 % 0 mm 0.0 W/m2 CLR
21:12 -10.7 °C -14 °C 34750.5 hPa Calm     67 % 0 mm 0.0 W/m2 CLR
21:17 -10.7 °C -14 °C 34750.5 hPa Calm     67 % 0 mm 0.0 W/m2 CLR
21:22 -10.7 °C -13.9 °C 34750.5 hPa Calm     68 % 0 mm 0.0 W/m2 CLR
21:27 -11 °C -14.2 °C 34750.5 hPa Calm     68 % 0 mm 0.0 W/m2 CLR
21:32 -11 °C -14.1 °C 34750.5 hPa East 10.3 km/h 10.3 km/h 69 % 0 mm 0.0 W/m2 CLR
21:37 -11.3 °C -14.3 °C 34750.5 hPa East 9 km/h 10.6 km/h 69 % 0 mm 0.0 W/m2 CLR
21:42 -11.3 °C -14.3 °C 34750.5 hPa East 9 km/h 9 km/h 69 % 0 mm 0.0 W/m2 CLR
21:47 -11.3 °C -14.3 °C 34750.5 hPa ENE 20.9 km/h 20.9 km/h 69 % 0 mm 0.0 W/m2 CLR
21:52 -11.6 °C -14.7 °C 34750.5 hPa East 6 km/h   69 % 0 mm 0.0 W/m2 CLR
21:57 -11.6 °C -14.6 °C 34750.5 hPa Calm     70 % 0 mm 0.0 W/m2 CLR
22:02 -11.6 °C -14.6 °C 34750.5 hPa Calm     70 % 0 mm 0.0 W/m2 CLR
22:07 -11.6 °C -14.6 °C 34750.5 hPa Calm     70 % 0 mm 0.0 W/m2 CLR
22:12 -11.9 °C -14.7 °C 34750.5 hPa ENE 9 km/h   71 % 0 mm 0.0 W/m2 CLR
22:17 -11.6 °C -14.4 °C 34750.5 hPa Calm     71 % 0 mm 0.0 W/m2 CLR
22:22 -11.6 °C -14.4 °C 34750.5 hPa Calm     71 % 0 mm 0.0 W/m2 CLR
22:27 -11.9 °C -14.6 °C 34760.7 hPa Calm     72 % 0 mm 0.0 W/m2 CLR
22:32 -11.9 °C -14.6 °C 34760.7 hPa Calm     72 % 0 mm 0.0 W/m2 CLR
22:37 -11.9 °C -14.6 °C 34760.7 hPa Calm     72 % 0 mm 0.0 W/m2 CLR
22:42 -11.9 °C -14.6 °C 34760.7 hPa Calm     72 % 0 mm 0.0 W/m2 CLR
22:47 -12.2 °C -14.9 °C 34760.7 hPa Calm     72 % 0 mm 0.0 W/m2 CLR
22:52 -12.2 °C -14.9 °C 34760.7 hPa Calm     72 % 0 mm 0.0 W/m2 CLR
22:58 -12.2 °C -14.9 °C 34760.7 hPa Calm     72 % 0 mm 0.0 W/m2 CLR
23:03 -12.2 °C -14.9 °C 34760.7 hPa Calm     72 % 0 mm 0.0 W/m2 CLR
23:08 -12.6 °C -15.2 °C 34760.7 hPa Calm     72 % 0 mm 0.0 W/m2 CLR
23:13 -12.6 °C -15.2 °C 34760.7 hPa Calm     72 % 0 mm 0.0 W/m2 CLR
23:18 -12.6 °C -15.2 °C 34760.7 hPa Calm     72 % 0 mm 0.0 W/m2 CLR
23:23 -12.6 °C -15.3 °C 34760.7 hPa Calm     71 % 0 mm 0.0 W/m2 CLR
23:28 -12.6 °C -14.9 °C 34760.7 hPa Calm     74 % 0 mm 0.0 W/m2 CLR
23:33 -12.6 °C -14.9 °C 34760.7 hPa Calm     75 % 0 mm 0.0 W/m2 CLR
23:38 -12.6 °C -14.9 °C 34760.7 hPa Calm     75 % 0 mm 0.0 W/m2 CLR
23:43 -12.6 °C -14.9 °C 34760.7 hPa Calm     75 % 0 mm 0.0 W/m2 CLR
23:48 -12.6 °C -14.8 °C 34760.7 hPa Calm     76 % 0 mm 0.0 W/m2 CLR
23:53 -12.6 °C -14.8 °C 34760.7 hPa Calm     76 % 0 mm 0.0 W/m2 CLR
23:58 -12.6 °C -14.6 °C 34760.7 hPa Calm     78 % 0 mm 0.0 W/m2 CLR
Lo Temps de Massalio
Compliments of Weather Underground - 1.25 mb